Time;durP1;ratioP1;P1;durP2;ratioP2;P2;SDS_P1;SDS_P2;PMS_P1;PMS_P2;Temp;Humidity;BMP_temperature;BMP_pressure;BME280_temperature;BME280_humidity;BME280_pressure;Samples;Min_cycle;Max_cycle;Signal;HPM_P1;HPM_P2
2023/12/07 00:01:03;;;;;;;96.40;19.25;;;2.80;99.90;;;;;;4929438;28;87781;-79
2023/12/07 00:03:28;;;;;;;92.03;20.20;;;2.90;99.90;;;;;;4927106;28;90172;-79
2023/12/07 00:05:54;;;;;;;91.22;19.80;;;2.90;99.90;;;;;;4925400;28;90898;-79
2023/12/07 00:08:20;;;;;;;86.93;18.58;;;2.90;99.90;;;;;;4927796;28;87408;-79
2023/12/07 00:10:45;;;;;;;135.25;21.30;;;2.90;99.90;;;;;;4926468;28;87785;-79
2023/12/07 00:13:11;;;;;;;57.72;19.55;;;2.90;99.90;;;;;;4925776;28;90628;-79
2023/12/07 00:15:37;;;;;;;113.57;21.40;;;2.90;99.90;;;;;;4926940;28;91231;-79
2023/12/07 00:18:03;;;;;;;117.85;20.40;;;2.90;99.90;;;;;;4926483;28;87871;-79
2023/12/07 00:20:29;;;;;;;127.28;21.60;;;2.90;99.90;;;;;;4925533;28;87538;-79
2023/12/07 00:22:55;;;;;;;96.25;19.65;;;2.80;99.90;;;;;;4926774;28;89684;-79
2023/12/07 00:25:21;;;;;;;140.95;22.05;;;2.80;99.90;;;;;;4923753;28;91051;-79
2023/12/07 00:27:48;;;;;;;112.75;21.73;;;2.80;99.90;;;;;;4926239;28;87620;-79
2023/12/07 00:30:13;;;;;;;105.00;20.38;;;2.80;99.90;;;;;;4925538;28;88222;-79
2023/12/07 00:32:43;;;;;;;140.57;21.23;;;3.00;99.90;;;;;;4925896;28;91291;-79
2023/12/07 00:35:09;;;;;;;83.75;20.52;;;3.20;99.90;;;;;;4929533;28;88697;-79
2023/12/07 00:37:34;;;;;;;89.97;21.17;;;3.30;99.90;;;;;;4924715;28;87196;-79
2023/12/07 00:40:01;;;;;;;62.92;19.88;;;3.50;99.90;;;;;;4927816;28;86924;-79
2023/12/07 00:42:27;;;;;;;98.32;19.38;;;3.60;99.90;;;;;;4927376;28;88657;-79
2023/12/07 00:44:53;;;;;;;74.60;18.98;;;3.70;99.90;;;;;;4925328;28;90489;-79
2023/12/07 00:47:20;;;;;;;57.28;18.63;;;3.80;99.90;;;;;;4929061;28;88972;-79
2023/12/07 00:49:46;;;;;;;94.68;18.73;;;3.80;99.90;;;;;;4927311;28;87776;-79
2023/12/07 00:52:12;;;;;;;75.10;17.42;;;3.90;99.90;;;;;;4926135;28;88319;-79
2023/12/07 00:54:39;;;;;;;72.82;18.17;;;4.00;99.90;;;;;;4925687;28;88808;-79
2023/12/07 00:57:05;;;;;;;85.88;19.55;;;4.00;99.90;;;;;;4924913;28;87394;-79
2023/12/07 00:59:33;;;;;;;97.72;19.35;;;4.00;99.90;;;;;;4924465;28;96833;-79
2023/12/07 01:02:01;;;;;;;55.33;17.13;;;3.90;99.90;;;;;;4924878;28;90433;-79
2023/12/07 01:04:28;;;;;;;54.88;18.58;;;4.00;99.90;;;;;;4922693;28;91584;-79
2023/12/07 01:06:53;;;;;;;74.07;17.73;;;4.00;99.90;;;;;;4926978;28;87360;-79
2023/12/07 01:09:19;;;;;;;67.22;17.40;;;4.00;99.90;;;;;;4926740;28;87978;-78
2023/12/07 01:11:44;;;;;;;55.50;16.90;;;4.00;99.90;;;;;;4927323;28;88684;-78
2023/12/07 01:14:11;;;;;;;75.97;17.50;;;4.00;99.90;;;;;;4926579;28;91373;-78
2023/12/07 01:16:37;;;;;;;69.00;15.93;;;4.10;99.90;;;;;;4927167;28;87675;-79
2023/12/07 01:19:02;;;;;;;76.03;15.98;;;4.10;99.90;;;;;;4926120;28;87657;-78
2023/12/07 01:21:28;;;;;;;86.93;17.92;;;4.20;99.90;;;;;;4928082;28;88353;-79
2023/12/07 01:23:54;;;;;;;58.45;15.48;;;4.20;99.90;;;;;;4926719;28;89025;-79
2023/12/07 01:26:20;;;;;;;61.85;16.40;;;4.30;99.90;;;;;;4926798;28;87179;-79
2023/12/07 01:28:46;;;;;;;73.03;16.33;;;4.40;99.90;;;;;;4929415;28;87032;-78
2023/12/07 01:31:12;;;;;;;73.30;15.25;;;4.30;99.90;;;;;;4928482;28;90755;-79
2023/12/07 01:33:37;;;;;;;72.95;16.15;;;4.10;99.90;;;;;;4929092;28;88308;-79
2023/12/07 01:36:03;;;;;;;76.32;15.80;;;4.10;99.90;;;;;;4929449;28;88358;-79
2023/12/07 01:38:29;;;;;;;48.00;14.73;;;4.10;99.90;;;;;;4927794;28;87712;-79
2023/12/07 01:40:55;;;;;;;57.13;14.20;;;4.10;99.90;;;;;;4931803;28;87644;-79
2023/12/07 01:43:22;;;;;;;65.10;13.57;;;4.10;99.90;;;;;;4925924;28;89077;-79
2023/12/07 01:45:51;;;;;;;53.67;13.60;;;4.00;99.90;;;;;;4928028;28;87167;-79
2023/12/07 01:48:16;;;;;;;53.45;14.23;;;3.90;99.90;;;;;;4922991;28;87559;-78
2023/12/07 01:50:43;;;;;;;74.38;15.25;;;3.90;99.90;;;;;;4925567;28;88707;-79
2023/12/07 01:53:09;;;;;;;51.25;13.45;;;3.90;99.90;;;;;;4925092;28;88240;-79
2023/12/07 01:55:35;;;;;;;58.63;16.08;;;3.90;99.90;;;;;;4921965;28;87652;-79
2023/12/07 01:58:01;;;;;;;45.05;14.15;;;3.90;99.90;;;;;;4920966;28;87688;-79
2023/12/07 02:00:27;;;;;;;48.05;13.00;;;4.00;99.90;;;;;;4919698;28;92978;-79
2023/12/07 02:02:53;;;;;;;51.63;13.32;;;3.90;99.90;;;;;;4921597;28;93187;-79
2023/12/07 02:05:19;;;;;;;46.97;13.55;;;3.90;99.90;;;;;;4919288;28;87717;-79
2023/12/07 02:07:46;;;;;;;43.72;13.57;;;3.90;99.90;;;;;;4919429;28;87633;-79
2023/12/07 02:10:13;;;;;;;57.40;14.18;;;3.80;99.90;;;;;;4902374;28;92337;-79
2023/12/07 02:12:39;;;;;;;47.38;14.80;;;3.80;99.90;;;;;;4922218;28;88481;-79
2023/12/07 02:15:07;;;;;;;43.67;12.45;;;3.80;99.90;;;;;;4922715;28;88257;-79
2023/12/07 02:17:42;;;;;;;45.22;14.18;;;3.90;99.90;;;;;;4920284;28;92133;-79
2023/12/07 02:20:28;;;;;;;45.33;13.18;;;3.90;99.90;;;;;;4923157;28;91631;-79
2023/12/07 02:22:56;;;;;;;42.65;13.88;;;4.00;99.90;;;;;;4920923;28;88523;-78
2023/12/07 02:25:35;;;;;;;42.55;12.85;;;4.00;99.90;;;;;;4921279;28;88680;-79
2023/12/07 02:28:01;;;;;;;40.13;12.45;;;4.10;99.90;;;;;;4902836;28;96089;-79
2023/12/07 02:30:26;;;;;;;47.15;13.85;;;4.10;99.90;;;;;;4921757;28;87883;-79
2023/12/07 02:32:52;;;;;;;52.22;15.70;;;4.20;99.90;;;;;;4926345;28;90527;-79
2023/12/07 02:35:18;;;;;;;49.25;12.77;;;4.20;99.90;;;;;;4928867;28;88611;-79
2023/12/07 02:37:49;;;;;;;50.28;14.38;;;4.20;99.90;;;;;;4926791;28;87870;-79
2023/12/07 02:40:21;;;;;;;57.65;15.73;;;4.20;99.90;;;;;;4928392;28;88639;-79
2023/12/07 02:42:47;;;;;;;51.72;15.38;;;4.10;99.90;;;;;;4918735;28;92047;-78
2023/12/07 02:45:14;;;;;;;50.53;15.95;;;4.10;99.90;;;;;;4926847;28;89171;-79
2023/12/07 02:47:40;;;;;;;56.28;17.02;;;4.10;99.90;;;;;;4929185;28;87292;-78
2023/12/07 02:50:07;;;;;;;48.97;16.10;;;4.00;99.90;;;;;;4927420;28;89108;-79
2023/12/07 02:52:34;;;;;;;56.72;16.58;;;4.00;99.90;;;;;;4906004;28;90990;-79
2023/12/07 02:54:59;;;;;;;67.85;16.02;;;4.00;99.90;;;;;;4924497;28;87612;-79
2023/12/07 02:57:25;;;;;;;54.08;15.05;;;4.10;99.90;;;;;;4924388;28;87622;-79
2023/12/07 02:59:51;;;;;;;43.83;15.70;;;4.10;99.90;;;;;;4925490;28;88688;-79
2023/12/07 03:02:16;;;;;;;50.28;16.67;;;4.00;99.90;;;;;;4924484;28;88435;-80
2023/12/07 03:04:42;;;;;;;57.20;18.48;;;3.90;99.90;;;;;;4909264;28;87766;-78
2023/12/07 03:07:08;;;;;;;60.97;15.65;;;3.90;99.90;;;;;;4924437;28;87606;-79
2023/12/07 03:09:33;;;;;;;45.20;15.70;;;3.90;99.90;;;;;;4921439;28;87596;-78
2023/12/07 03:11:59;;;;;;;43.85;15.70;;;3.90;99.90;;;;;;4923715;28;88532;-79
2023/12/07 03:14:24;;;;;;;46.03;16.10;;;3.90;99.90;;;;;;4923367;28;88711;-78
2023/12/07 03:16:50;;;;;;;48.83;17.17;;;3.80;99.90;;;;;;4924741;28;90723;-78
2023/12/07 03:19:16;;;;;;;39.75;15.68;;;3.90;99.90;;;;;;4923053;28;89413;-78
2023/12/07 03:21:45;;;;;;;41.00;15.00;;;3.80;99.90;;;;;;4927681;28;89037;-79
2023/12/07 03:24:10;;;;;;;39.88;14.07;;;3.80;99.90;;;;;;4923291;28;87194;-79
2023/12/07 03:26:37;;;;;;;31.92;13.55;;;3.70;99.90;;;;;;4928283;28;87898;-78
2023/12/07 03:29:03;;;;;;;28.65;12.68;;;3.70;99.90;;;;;;4926777;28;88518;-79
2023/12/07 03:31:29;;;;;;;32.22;12.75;;;3.70;99.90;;;;;;4927298;28;90445;-79
2023/12/07 03:33:55;;;;;;;35.08;12.88;;;3.70;99.90;;;;;;4929395;28;87475;-80
2023/12/07 03:36:21;;;;;;;30.42;12.45;;;3.70;99.90;;;;;;4929199;28;88362;-78
2023/12/07 03:38:48;;;;;;;26.00;11.18;;;3.70;99.90;;;;;;4928131;28;91465;-78
2023/12/07 03:41:13;;;;;;;31.35;12.77;;;3.60;99.90;;;;;;4909048;28;92535;-79
2023/12/07 03:43:39;;;;;;;32.05;12.68;;;3.60;99.90;;;;;;4927760;28;87631;-79
2023/12/07 03:46:06;;;;;;;31.00;12.13;;;3.60;99.90;;;;;;4928753;28;87972;-78
2023/12/07 03:48:32;;;;;;;32.95;13.00;;;3.60;99.90;;;;;;4925927;28;88237;-78
2023/12/07 03:50:58;;;;;;;30.60;12.40;;;3.40;99.90;;;;;;4926074;28;88773;-79
2023/12/07 03:53:24;;;;;;;27.48;10.88;;;3.40;99.90;;;;;;4926913;28;87646;-78
2023/12/07 03:55:49;;;;;;;33.05;12.68;;;3.30;99.90;;;;;;4928134;28;87214;-79
2023/12/07 03:58:15;;;;;;;32.00;12.40;;;3.30;99.90;;;;;;4925671;28;88543;-78
2023/12/07 04:00:41;;;;;;;31.63;12.23;;;3.20;99.90;;;;;;4927280;28;91997;-78
2023/12/07 04:03:07;;;;;;;28.15;11.80;;;3.20;99.90;;;;;;4926319;28;88299;-78
2023/12/07 04:05:33;;;;;;;26.40;10.82;;;3.20;99.90;;;;;;4928888;28;87549;-79
2023/12/07 04:07:59;;;;;;;27.83;11.55;;;3.20;99.90;;;;;;4926434;28;88334;-79
2023/12/07 04:10:25;;;;;;;24.48;11.00;;;3.20;99.90;;;;;;4927338;28;88551;-79
2023/12/07 04:12:52;;;;;;;26.45;10.90;;;3.20;99.90;;;;;;4927783;28;87734;-78
2023/12/07 04:15:19;;;;;;;27.42;10.40;;;3.20;99.90;;;;;;4925636;28;90123;-78
2023/12/07 04:17:45;;;;;;;23.00;10.52;;;3.10;99.90;;;;;;4929476;28;88659;-78
2023/12/07 04:20:12;;;;;;;25.90;9.85;;;3.20;99.90;;;;;;4928347;28;88997;-79
2023/12/07 04:22:38;;;;;;;19.58;9.45;;;3.20;99.90;;;;;;4928394;28;87525;-78
2023/12/07 04:25:05;;;;;;;24.63;9.95;;;3.20;99.90;;;;;;4926271;28;88883;-78
2023/12/07 04:27:31;;;;;;;22.85;9.80;;;3.20;99.90;;;;;;4927158;28;89076;-79
2023/12/07 04:29:57;;;;;;;26.10;11.95;;;3.20;99.90;;;;;;4928241;28;89938;-79
2023/12/07 04:32:23;;;;;;;29.80;11.15;;;3.20;99.90;;;;;;4924352;28;87752;-79
2023/12/07 04:34:49;;;;;;;27.48;10.02;;;3.30;99.90;;;;;;4924945;28;87668;-79
2023/12/07 04:37:15;;;;;;;23.70;9.98;;;3.30;99.90;;;;;;4925352;28;88434;-79
2023/12/07 04:39:40;;;;;;;23.70;9.90;;;3.30;99.90;;;;;;4925602;28;88292;-79
2023/12/07 04:42:06;;;;;;;24.48;10.20;;;3.20;99.90;;;;;;4909847;28;87809;-78
2023/12/07 04:44:32;;;;;;;23.58;10.27;;;3.10;99.90;;;;;;4925406;28;86929;-78
2023/12/07 04:46:57;;;;;;;23.48;9.73;;;3.10;99.90;;;;;;4924830;28;88815;-79
2023/12/07 04:49:23;;;;;;;23.67;10.25;;;3.10;99.90;;;;;;4917219;28;91304;-78
2023/12/07 04:51:49;;;;;;;20.98;8.90;;;3.00;99.90;;;;;;4926833;28;88874;-79
2023/12/07 04:54:14;;;;;;;21.77;9.13;;;3.00;99.90;;;;;;4926127;28;87484;-79
2023/12/07 04:56:41;;;;;;;22.38;9.55;;;3.10;99.90;;;;;;4925019;28;90875;-79
2023/12/07 04:59:08;;;;;;;21.77;8.77;;;3.10;99.90;;;;;;4908896;28;91685;-79
2023/12/07 05:01:35;;;;;;;27.08;10.25;;;3.10;99.90;;;;;;4927055;28;87512;-79
2023/12/07 05:04:03;;;;;;;22.27;9.32;;;3.20;99.90;;;;;;4925714;28;87936;-79
2023/12/07 05:06:32;;;;;;;22.17;9.65;;;3.20;99.90;;;;;;4926318;28;88580;-78
2023/12/07 05:08:58;;;;;;;22.30;9.80;;;3.20;99.90;;;;;;4925300;28;91428;-78
2023/12/07 05:11:24;;;;;;;24.70;9.23;;;3.20;99.90;;;;;;4926536;28;87368;-79
2023/12/07 05:13:49;;;;;;;23.38;10.05;;;3.30;99.90;;;;;;4925383;28;87770;-78
2023/12/07 05:16:15;;;;;;;23.80;8.88;;;3.40;99.90;;;;;;4925557;28;89713;-78
2023/12/07 05:18:41;;;;;;;28.20;10.00;;;3.40;99.90;;;;;;4926291;28;88984;-79
2023/12/07 05:21:07;;;;;;;24.95;9.63;;;3.40;99.90;;;;;;4925937;28;87385;-79
2023/12/07 05:23:33;;;;;;;24.17;9.55;;;3.50;99.90;;;;;;4924642;28;90551;-79
2023/12/07 05:25:59;;;;;;;25.08;10.27;;;3.60;99.90;;;;;;4924117;28;91397;-78
2023/12/07 05:28:25;;;;;;;20.75;9.88;;;3.60;99.90;;;;;;4925693;28;88808;-79
2023/12/07 05:30:51;;;;;;;23.77;10.82;;;3.50;99.90;;;;;;4925923;28;87383;-78
2023/12/07 05:33:19;;;;;;;28.35;11.20;;;3.50;99.90;;;;;;4916186;28;88833;-78
2023/12/07 05:35:45;;;;;;;26.27;11.18;;;3.60;99.90;;;;;;4924048;28;88562;-78
2023/12/07 05:38:11;;;;;;;26.77;11.30;;;3.60;99.90;;;;;;4926196;28;90130;-78
2023/12/07 05:40:36;;;;;;;21.25;10.45;;;3.60;99.90;;;;;;4928039;28;88214;-78
2023/12/07 05:43:03;;;;;;;25.25;12.18;;;3.60;99.90;;;;;;4924574;28;87730;-79
2023/12/07 05:45:29;;;;;;;29.77;11.52;;;3.60;99.90;;;;;;4925838;28;88555;-78
2023/12/07 05:47:55;;;;;;;28.92;10.98;;;3.60;99.90;;;;;;4925917;28;88597;-79
2023/12/07 05:50:21;;;;;;;26.05;11.18;;;3.60;99.90;;;;;;4925556;28;88228;-78
2023/12/07 05:52:46;;;;;;;27.33;11.50;;;3.60;99.90;;;;;;4923471;28;87961;-78
2023/12/07 05:55:13;;;;;;;27.85;11.55;;;3.60;99.90;;;;;;4921313;28;90201;-78
2023/12/07 05:57:39;;;;;;;27.08;12.43;;;3.70;99.90;;;;;;4918102;28;88495;-78
2023/12/07 06:00:09;;;;;;;22.92;10.98;;;3.70;99.90;;;;;;4919878;28;88379;-78
2023/12/07 06:02:35;;;;;;;24.10;10.85;;;3.70;99.90;;;;;;4917944;28;91752;-78
2023/12/07 06:05:03;;;;;;;21.02;10.77;;;3.70;99.90;;;;;;4919003;28;88117;-78
2023/12/07 06:07:29;;;;;;;26.85;12.13;;;3.70;99.90;;;;;;4922370;28;89371;-78
2023/12/07 06:09:55;;;;;;;21.83;11.13;;;3.70;99.90;;;;;;4922921;28;87321;-78
2023/12/07 06:12:21;;;;;;;24.70;10.80;;;3.70;99.90;;;;;;4923279;28;87370;-77
2023/12/07 06:14:48;;;;;;;24.92;10.93;;;3.60;99.90;;;;;;4920225;28;88106;-78
2023/12/07 06:17:13;;;;;;;24.60;11.38;;;3.70;99.90;;;;;;4918246;28;90190;-78
2023/12/07 06:19:39;;;;;;;23.40;10.70;;;3.70;99.90;;;;;;4917970;28;87683;-78
2023/12/07 06:22:05;;;;;;;22.10;11.02;;;3.60;99.90;;;;;;4910755;28;86905;-78
2023/12/07 06:24:32;;;;;;;23.02;11.27;;;3.70;99.90;;;;;;4913921;28;89320;-78
2023/12/07 06:26:58;;;;;;;25.27;11.45;;;3.70;99.90;;;;;;4911386;28;90351;-79
2023/12/07 06:29:24;;;;;;;24.67;10.88;;;3.70;99.90;;;;;;4913959;28;88868;-78
2023/12/07 06:31:49;;;;;;;21.52;10.82;;;3.70;99.90;;;;;;4911602;28;87487;-78
2023/12/07 06:34:16;;;;;;;22.27;10.52;;;3.70;99.90;;;;;;4911880;28;89398;-78
2023/12/07 06:36:43;;;;;;;24.83;10.35;;;3.70;99.90;;;;;;4920811;28;87592;-78
2023/12/07 06:39:10;;;;;;;25.10;11.38;;;3.80;99.90;;;;;;4920701;28;87464;-78
2023/12/07 06:41:35;;;;;;;24.92;11.80;;;3.80;99.90;;;;;;4919553;28;89255;-78
2023/12/07 06:44:01;;;;;;;23.73;11.13;;;3.90;99.90;;;;;;4911436;28;91227;-78
2023/12/07 06:46:27;;;;;;;28.33;12.05;;;3.90;99.90;;;;;;4919779;28;89635;-79
2023/12/07 06:48:52;;;;;;;24.48;11.25;;;3.80;99.90;;;;;;4925464;28;87856;-79
2023/12/07 06:51:18;;;;;;;22.77;10.93;;;3.80;99.90;;;;;;4919742;28;90233;-78
2023/12/07 06:53:44;;;;;;;25.00;11.30;;;3.60;99.90;;;;;;4922351;28;92770;-78
2023/12/07 06:56:09;;;;;;;22.02;10.98;;;3.50;99.90;;;;;;4924169;28;89273;-78
2023/12/07 06:58:35;;;;;;;23.80;10.90;;;3.40;99.90;;;;;;4925601;28;87570;-78
2023/12/07 07:01:01;;;;;;;25.00;11.60;;;3.30;99.90;;;;;;4923946;28;95387;-78
2023/12/07 07:03:27;;;;;;;31.70;11.27;;;3.20;99.90;;;;;;4924501;28;88614;-78
2023/12/07 07:05:54;;;;;;;49.75;16.45;;;3.20;99.90;;;;;;4925392;28;88369;-78
2023/12/07 07:08:20;;;;;;;52.65;13.18;;;3.10;99.90;;;;;;4925641;28;87503;-78
2023/12/07 07:10:46;;;;;;;115.03;18.05;;;3.10;99.90;;;;;;4920258;28;87316;-77
2023/12/07 07:13:14;;;;;;;89.60;15.10;;;3.10;99.90;;;;;;4922729;28;88485;-78
2023/12/07 07:15:43;;;;;;;56.90;13.05;;;3.10;99.90;;;;;;4904740;28;90531;-78
2023/12/07 07:18:09;;;;;;;38.85;12.20;;;3.00;99.90;;;;;;4919494;28;88830;-78
2023/12/07 07:20:35;;;;;;;36.17;11.48;;;3.00;99.90;;;;;;4922015;28;89458;-79
2023/12/07 07:23:00;;;;;;;24.50;9.43;;;2.90;99.90;;;;;;4925927;28;88565;-77
2023/12/07 07:25:26;;;;;;;24.50;9.80;;;2.90;99.90;;;;;;4926516;28;88511;-77
2023/12/07 07:27:54;;;;;;;21.85;9.52;;;2.80;99.90;;;;;;4923739;28;88024;-78
2023/12/07 07:30:20;;;;;;;34.35;10.23;;;2.80;99.90;;;;;;4910921;28;87977;-78
2023/12/07 07:32:46;;;;;;;27.50;10.63;;;2.70;99.90;;;;;;4909202;28;91800;-77
2023/12/07 07:35:12;;;;;;;31.30;11.02;;;2.70;99.90;;;;;;4917910;28;88760;-78
2023/12/07 07:37:41;;;;;;;28.23;10.00;;;2.60;99.90;;;;;;4927248;28;87603;-78
2023/12/07 07:40:11;;;;;;;46.45;11.00;;;2.60;99.90;;;;;;4925306;28;90880;-78
2023/12/07 07:42:38;;;;;;;30.15;11.77;;;2.50;99.90;;;;;;4926587;28;89543;-78
2023/12/07 07:45:05;;;;;;;25.33;10.70;;;2.50;99.90;;;;;;4909202;28;91087;-78
2023/12/07 07:47:31;;;;;;;19.85;10.25;;;2.40;99.90;;;;;;4927789;28;87535;-78
2023/12/07 07:49:58;;;;;;;22.20;9.73;;;2.30;99.90;;;;;;4925169;28;90691;-77
2023/12/07 07:52:24;;;;;;;25.30;10.15;;;2.30;99.90;;;;;;4917841;28;90074;-78
2023/12/07 07:54:49;;;;;;;22.23;10.45;;;2.30;99.90;;;;;;4927149;28;89098;-78
2023/12/07 07:57:15;;;;;;;24.52;9.90;;;2.30;99.90;;;;;;4928382;28;87736;-78
2023/12/07 07:59:40;;;;;;;20.02;10.02;;;2.20;99.90;;;;;;4929231;28;87091;-78
2023/12/07 08:02:06;;;;;;;22.45;10.27;;;2.20;99.90;;;;;;4925247;28;90201;-77
2023/12/07 08:04:32;;;;;;;20.25;10.55;;;2.10;99.90;;;;;;4909970;28;90588;-78
2023/12/07 08:06:58;;;;;;;21.98;10.88;;;2.10;99.90;;;;;;4924974;28;88535;-77
2023/12/07 08:09:23;;;;;;;21.92;9.65;;;2.10;99.90;;;;;;4927126;28;87905;-78
2023/12/07 08:11:49;;;;;;;19.92;9.95;;;2.00;99.90;;;;;;4927068;28;88063;-77
2023/12/07 08:14:14;;;;;;;21.45;10.27;;;1.90;99.90;;;;;;4925344;28;91301;-78
2023/12/07 08:16:46;;;;;;;33.53;10.98;;;2.00;99.90;;;;;;4926637;28;87753;-77
2023/12/07 08:19:12;;;;;;;31.50;11.50;;;1.90;99.90;;;;;;4926906;28;87748;-78
2023/12/07 08:21:38;;;;;;;26.33;10.68;;;1.90;99.90;;;;;;4926918;28;88078;-78
2023/12/07 08:24:05;;;;;;;24.45;11.02;;;1.90;99.90;;;;;;4927790;28;89268;-78
2023/12/07 08:26:31;;;;;;;28.88;10.13;;;1.90;99.90;;;;;;4925018;28;88380;-78
2023/12/07 08:28:57;;;;;;;32.22;10.77;;;1.90;99.90;;;;;;4926616;28;87533;-78
2023/12/07 08:31:24;;;;;;;26.08;9.55;;;1.90;99.90;;;;;;4923582;28;91240;-78
2023/12/07 08:33:50;;;;;;;22.58;10.07;;;1.90;99.90;;;;;;4928202;28;88917;-78
2023/12/07 08:36:16;;;;;;;29.23;10.55;;;1.90;99.90;;;;;;4926058;28;87581;-78
2023/12/07 08:38:42;;;;;;;21.85;10.63;;;1.90;99.90;;;;;;4925498;28;89424;-78
2023/12/07 08:41:08;;;;;;;22.25;9.80;;;2.00;99.90;;;;;;4926925;28;92063;-78
2023/12/07 08:43:33;;;;;;;22.10;11.05;;;2.00;99.90;;;;;;4927704;28;88408;-78
2023/12/07 08:45:59;;;;;;;18.70;9.27;;;2.00;99.90;;;;;;4908522;28;87976;-78
2023/12/07 08:48:25;;;;;;;23.67;11.75;;;2.00;99.90;;;;;;4926031;28;87438;-78
2023/12/07 08:50:51;;;;;;;23.92;10.48;;;2.10;99.90;;;;;;4927000;28;89073;-78
2023/12/07 08:53:17;;;;;;;23.98;11.02;;;2.10;99.90;;;;;;4924460;28;88802;-78
2023/12/07 08:55:42;;;;;;;27.23;11.63;;;2.20;99.90;;;;;;4926313;28;88466;-78
2023/12/07 08:58:10;;;;;;;24.58;10.68;;;2.30;99.90;;;;;;4926508;28;87712;-80
2023/12/07 09:00:37;;;;;;;27.67;10.68;;;2.30;99.90;;;;;;4925943;28;90699;-78
2023/12/07 09:03:03;;;;;;;20.45;9.63;;;2.30;99.90;;;;;;4924696;28;90310;-78
2023/12/07 09:05:29;;;;;;;24.40;10.20;;;2.40;99.90;;;;;;4925664;28;87787;-78
2023/12/07 09:07:56;;;;;;;20.75;9.65;;;2.50;99.90;;;;;;4925370;28;87614;-78
2023/12/07 09:10:22;;;;;;;24.42;10.50;;;2.60;99.90;;;;;;4915971;28;89337;-78
2023/12/07 09:12:48;;;;;;;22.13;10.30;;;2.60;99.90;;;;;;4924658;28;90897;-78
2023/12/07 09:15:14;;;;;;;20.85;9.65;;;2.60;99.90;;;;;;4926246;28;87826;-78
2023/12/07 09:17:40;;;;;;;22.00;10.20;;;2.70;99.90;;;;;;4927440;28;87630;-78
2023/12/07 09:20:12;;;;;;;21.35;9.80;;;2.80;99.90;;;;;;4915063;28;92913;-78
2023/12/07 09:22:40;;;;;;;22.48;10.23;;;2.80;99.90;;;;;;4923353;28;92258;-78
2023/12/07 09:25:07;;;;;;;26.23;9.95;;;2.90;99.90;;;;;;4925644;28;87828;-78
2023/12/07 09:27:34;;;;;;;20.90;9.05;;;2.90;99.90;;;;;;4924134;28;89807;-79
2023/12/07 09:30:04;;;;;;;19.98;9.30;;;3.00;99.90;;;;;;4926614;28;89369;-78
2023/12/07 09:32:30;;;;;;;18.63;9.40;;;3.10;99.90;;;;;;4926078;28;88094;-79
2023/12/07 09:34:56;;;;;;;17.25;8.35;;;3.20;99.90;;;;;;4908100;28;87739;-78
2023/12/07 09:37:22;;;;;;;32.53;9.65;;;3.30;99.90;;;;;;4927099;28;86964;-80
2023/12/07 09:39:47;;;;;;;24.42;9.35;;;3.40;99.90;;;;;;4926646;28;90187;-78
2023/12/07 09:42:13;;;;;;;21.48;9.50;;;3.50;99.90;;;;;;4925957;28;88564;-78
2023/12/07 09:44:39;;;;;;;17.77;8.88;;;3.60;99.90;;;;;;4912923;28;88999;-78
2023/12/07 09:47:05;;;;;;;21.08;8.68;;;3.70;99.90;;;;;;4930185;28;87490;-78
2023/12/07 09:49:31;;;;;;;16.73;7.63;;;3.70;99.90;;;;;;4928549;28;91075;-78
2023/12/07 09:51:59;;;;;;;18.30;8.73;;;3.80;99.90;;;;;;4928937;28;90024;-78
2023/12/07 09:54:26;;;;;;;17.70;8.57;;;3.90;99.90;;;;;;4929011;28;87459;-78
2023/12/07 09:56:54;;;;;;;18.75;8.05;;;3.90;99.90;;;;;;4930615;28;89328;-79
2023/12/07 09:59:20;;;;;;;18.58;8.85;;;4.00;99.90;;;;;;4928488;28;90187;-78
2023/12/07 10:01:45;;;;;;;17.25;8.45;;;4.10;99.90;;;;;;4930170;28;88204;-78
2023/12/07 10:04:22;;;;;;;15.98;8.70;;;4.20;99.90;;;;;;4926924;28;87955;-78
2023/12/07 10:06:49;;;;;;;15.25;8.38;;;4.30;99.90;;;;;;4929956;28;87444;-78
2023/12/07 10:09:15;;;;;;;15.23;8.88;;;4.30;99.90;;;;;;4928787;28;88626;-78
2023/12/07 10:11:41;;;;;;;15.63;8.43;;;4.40;99.90;;;;;;4930298;28;90083;-78
2023/12/07 10:14:07;;;;;;;13.73;7.85;;;4.60;99.90;;;;;;4926406;28;87334;-79
2023/12/07 10:16:36;;;;;;;18.58;8.00;;;4.60;99.90;;;;;;4928323;28;90572;-78
2023/12/07 10:19:17;;;;;;;16.33;7.35;;;4.70;99.90;;;;;;4929830;28;88606;-77
2023/12/07 10:21:43;;;;;;;21.83;8.00;;;4.70;99.90;;;;;;4911385;28;89082;-77
2023/12/07 10:24:09;;;;;;;18.73;8.55;;;4.80;99.90;;;;;;4929455;28;87391;-77
2023/12/07 10:26:36;;;;;;;15.80;8.13;;;4.90;99.90;;;;;;4928694;28;87140;-77
2023/12/07 10:29:05;;;;;;;14.50;8.48;;;4.90;99.90;;;;;;4927886;28;88661;-77
2023/12/07 10:31:32;;;;;;;15.98;8.23;;;5.00;99.90;;;;;;4930365;28;88132;-77
2023/12/07 10:33:59;;;;;;;20.42;8.63;;;5.10;99.90;;;;;;4925254;28;88357;-77
2023/12/07 10:36:25;;;;;;;18.80;7.82;;;5.10;99.90;;;;;;4924941;28;87421;-77
2023/12/07 10:38:51;;;;;;;14.30;7.57;;;5.20;99.90;;;;;;4928248;28;89621;-77
2023/12/07 10:41:19;;;;;;;23.20;8.73;;;5.30;99.90;;;;;;4926340;28;87757;-77
2023/12/07 10:43:52;;;;;;;21.92;8.10;;;5.40;99.90;;;;;;4929063;28;87837;-77
2023/12/07 10:46:20;;;;;;;14.25;8.52;;;5.50;99.90;;;;;;4925046;28;90425;-77
2023/12/07 10:48:48;;;;;;;19.00;8.25;;;5.50;99.90;;;;;;4922154;28;89395;-77
2023/12/07 10:51:21;;;;;;;20.90;8.82;;;5.60;99.90;;;;;;4926748;28;88019;-77
2023/12/07 10:53:50;;;;;;;14.85;7.70;;;5.80;99.90;;;;;;4924989;28;87471;-78
2023/12/07 10:56:28;;;;;;;13.95;7.65;;;5.90;99.90;;;;;;4926717;28;90895;-77
2023/12/07 10:58:55;;;;;;;18.02;7.85;;;6.00;99.90;;;;;;4926530;28;89966;-77
2023/12/07 11:01:22;;;;;;;17.80;8.15;;;6.00;99.90;;;;;;4928980;28;89388;-77
2023/12/07 11:03:50;;;;;;;13.27;7.45;;;6.10;99.90;;;;;;4927751;28;88030;-77
2023/12/07 11:06:16;;;;;;;16.70;7.50;;;6.10;99.90;;;;;;4924832;28;89390;-77
2023/12/07 11:08:44;;;;;;;14.52;7.78;;;6.10;99.90;;;;;;4916881;28;91258;-78
2023/12/07 11:11:40;;;;;;;14.45;7.65;;;6.20;99.90;;;;;;4926806;28;88623;-78
2023/12/07 11:14:11;;;;;;;17.83;7.35;;;6.30;99.90;;;;;;4923370;28;87542;-80
2023/12/07 11:16:40;;;;;;;17.40;8.25;;;6.50;99.90;;;;;;4910069;28;89792;-79
2023/12/07 11:19:29;;;;;;;13.32;7.53;;;6.60;99.90;;;;;;4929718;28;89210;-78
2023/12/07 11:22:13;;;;;;;15.30;7.22;;;6.70;99.90;;;;;;4918155;28;90233;-79
2023/12/07 11:24:58;;;;;;;12.15;6.75;;;6.70;99.90;;;;;;4927847;28;88396;-78
2023/12/07 11:27:24;;;;;;;16.15;7.35;;;6.80;99.90;;;;;;4925218;28;90484;-78
2023/12/07 11:29:51;;;;;;;13.27;7.57;;;6.80;99.90;;;;;;4929057;28;91660;-78
2023/12/07 11:32:17;;;;;;;17.25;8.88;;;6.80;99.90;;;;;;4927800;28;88452;-79
2023/12/07 11:34:43;;;;;;;13.05;6.30;;;6.80;99.90;;;;;;4927662;28;87451;-79
2023/12/07 11:37:11;;;;;;;14.85;6.78;;;6.80;99.90;;;;;;4928250;28;87559;-78
2023/12/07 11:39:45;;;;;;;14.15;6.90;;;6.80;99.90;;;;;;4927542;28;89425;-78
2023/12/07 11:42:18;;;;;;;15.85;7.50;;;6.70;99.90;;;;;;4929047;28;88420;-78
2023/12/07 11:44:49;;;;;;;13.75;6.38;;;6.70;99.90;;;;;;4928460;28;87682;-78
2023/12/07 11:47:21;;;;;;;13.55;5.97;;;6.70;99.90;;;;;;4929687;28;87548;-79
2023/12/07 11:49:48;;;;;;;14.73;7.25;;;6.60;99.90;;;;;;4922422;28;89911;-80
2023/12/07 11:52:20;;;;;;;18.92;6.80;;;6.60;99.90;;;;;;4921741;28;89895;-78
2023/12/07 11:54:47;;;;;;;12.97;6.30;;;6.60;99.90;;;;;;4901353;28;93894;-77
2023/12/07 11:57:14;;;;;;;10.77;6.15;;;6.60;99.90;;;;;;4923262;28;88493;-78
2023/12/07 11:59:41;;;;;;;12.13;6.38;;;6.60;99.90;;;;;;4913375;28;89043;-78
2023/12/07 12:02:06;;;;;;;11.98;6.55;;;6.60;99.90;;;;;;4905326;28;90443;-78
2023/12/07 12:04:32;;;;;;;13.77;6.43;;;6.60;99.90;;;;;;4901714;28;88862;-80
2023/12/07 12:06:57;;;;;;;12.88;6.78;;;6.60;99.90;;;;;;4912005;28;89486;-78
2023/12/07 12:09:26;;;;;;;12.23;6.97;;;6.60;99.90;;;;;;4905247;28;90643;-78
2023/12/07 12:11:54;;;;;;;26.73;8.43;;;6.70;99.90;;;;;;4927876;28;88619;-78
2023/12/07 12:14:20;;;;;;;15.18;6.50;;;6.80;99.90;;;;;;4926117;28;88797;-78
2023/12/07 12:16:46;;;;;;;13.13;6.45;;;6.90;99.90;;;;;;4926280;28;88269;-78
2023/12/07 12:19:15;;;;;;;23.02;8.10;;;7.00;99.90;;;;;;4925124;28;87891;-78
2023/12/07 12:21:43;;;;;;;20.58;7.00;;;7.10;99.90;;;;;;4926150;28;88190;-78
2023/12/07 12:24:10;;;;;;;11.82;7.03;;;7.30;99.90;;;;;;4916550;28;87694;-78
2023/12/07 12:26:38;;;;;;;14.40;7.20;;;7.40;99.90;;;;;;4911922;28;90812;-78
2023/12/07 12:29:11;;;;;;;16.02;6.43;;;7.50;99.90;;;;;;4924389;28;90527;-78
2023/12/07 12:31:37;;;;;;;13.95;6.32;;;7.50;99.90;;;;;;4926692;28;91516;-78
2023/12/07 12:34:07;;;;;;;14.73;6.07;;;7.60;99.90;;;;;;4927411;28;87935;-79
2023/12/07 12:36:32;;;;;;;13.95;5.90;;;7.80;99.90;;;;;;4927635;28;89274;-78
2023/12/07 12:38:59;;;;;;;13.85;6.13;;;7.70;99.90;;;;;;4926896;28;89523;-78